Time;durP1;ratioP1;P1;durP2;ratioP2;P2;SDS_P1;SDS_P2;PMS_P1;PMS_P2;Temp;Humidity;BMP_temperature;BMP_pressure;BME280_temperature;BME280_humidity;BME280_pressure;Samples;Min_cycle;Max_cycle;Signal;HPM_P1;HPM_P2
2022/11/11 00:02:31;;;;;;;;;;;;;;;11.00;99.92;102737.16;6099341;23;20022;-57
2022/11/11 00:05:17;;;;;;;11.20;4.97;;;;;;;10.97;99.74;102743.06;6098521;23;19940;-53
2022/11/11 00:08:04;;;;;;;11.05;4.55;;;;;;;10.96;100.00;102735.91;6097673;23;20022;-54
2022/11/11 00:10:49;;;;;;;;;;;;;;;11.02;100.00;102735.03;6097268;23;20018;-54
2022/11/11 00:13:37;;;;;;;11.02;5.10;;;;;;;10.99;100.00;102729.19;6099157;23;19921;-56
2022/11/11 00:16:23;;;;;;;12.13;4.75;;;;;;;11.01;100.00;102727.06;6098682;23;20100;-56
2022/11/11 00:25:26;;;;;;;10.48;5.28;;;;;;;11.03;100.00;102744.88;6098353;23;20026;-52
2022/11/11 00:28:14;;;;;;;12.02;5.45;;;;;;;11.05;100.00;102750.94;6098542;23;20018;-53
2022/11/11 00:31:08;;;;;;;11.32;5.63;;;;;;;11.00;100.00;102763.59;6096702;23;20022;-57
2022/11/11 00:33:54;;;;;;;15.45;5.80;;;;;;;10.96;100.00;102756.91;6098526;23;20439;-55
2022/11/11 00:36:40;;;;;;;9.95;5.40;;;;;;;10.97;100.00;102762.16;6098120;23;20029;-54
2022/11/11 00:39:29;;;;;;;9.65;5.15;;;;;;;11.01;100.00;102760.63;6097394;23;20467;-57
2022/11/11 00:42:15;;;;;;;;;;;;;;;11.07;100.00;102767.09;6098592;23;20443;-56
2022/11/11 00:45:02;;;;;;;10.35;5.22;;;;;;;11.09;100.00;102757.63;6098497;23;19921;-57
2022/11/11 00:50:59;;;;;;;13.15;5.43;;;;;;;11.05;100.00;102764.59;6098029;23;20105;-55
2022/11/11 00:53:46;;;;;;;10.77;5.45;;;;;;;11.00;100.00;102772.59;6098365;23;20015;-54
2022/11/11 00:56:35;;;;;;;10.45;5.55;;;;;;;11.02;100.00;102775.94;6098353;23;20014;-55
2022/11/11 00:59:21;;;;;;;10.52;5.47;;;;;;;11.01;100.00;102777.00;6097273;23;20026;-55
2022/11/11 01:02:07;;;;;;;9.88;5.10;;;;;;;11.01;100.00;102781.63;6095933;23;20023;-55
2022/11/11 01:04:53;;;;;;;;;;;;;;;11.03;100.00;102784.97;6098739;23;20018;-54
2022/11/11 01:07:39;;;;;;;9.70;5.63;;;;;;;11.02;100.00;102786.84;6098006;23;20000;-54
2022/11/11 01:10:37;;;;;;;9.57;5.88;;;;;;;11.02;100.00;102783.31;6096742;23;20014;-54
2022/11/11 01:13:26;;;;;;;12.32;6.05;;;;;;;11.01;100.00;102787.91;6097917;23;20042;-53
2022/11/11 01:16:15;;;;;;;11.32;5.90;;;;;;;11.01;100.00;102782.44;6098040;23;20018;-56
2022/11/11 01:19:02;;;;;;;9.40;6.13;;;;;;;11.03;100.00;102784.97;6098003;23;20502;-55
2022/11/11 01:21:48;;;;;;;10.15;5.82;;;;;;;11.03;100.00;102774.88;6095764;23;20050;-55
2022/11/11 01:24:35;;;;;;;;;;;;;;;11.04;100.00;102770.25;6098397;23;20417;-57
2022/11/11 01:27:21;;;;;;;9.35;5.53;;;;;;;11.07;100.00;102765.19;6097831;23;19923;-57
2022/11/11 01:30:07;;;;;;;;;;;;;;;11.05;100.00;102766.47;6098322;23;20077;-55
2022/11/11 01:32:54;;;;;;;12.48;5.95;;;;;;;11.04;100.00;102765.66;6097600;23;19917;-56
2022/11/11 01:35:40;;;;;;;;;;;;;;;11.05;100.00;102761.84;6097923;23;20019;-56
2022/11/11 01:38:26;;;;;;;11.05;5.75;;;;;;;11.09;100.00;102756.81;6097974;23;20000;-56
2022/11/11 01:41:32;;;;;;;10.85;5.80;;;;;;;11.05;100.00;102752.84;6096553;23;20026;-54
2022/11/11 01:44:39;;;;;;;10.93;6.00;;;;;;;11.09;100.00;102751.34;6095399;23;20455;-53
2022/11/11 01:49:17;;;;;;;12.48;6.30;;;;;;;11.03;100.00;102753.06;6097461;23;20439;-55
2022/11/11 01:50:51;;;;;;;10.52;5.15;;;;;;;11.08;100.00;102755.94;6097415;23;20077;-56
2022/11/11 01:53:37;;;;;;;;;;;;;;;11.13;100.00;102752.53;6096675;23;20019;-55
2022/11/11 01:56:23;;;;;;;10.18;5.63;;;;;;;11.09;100.00;102746.72;6096168;23;20397;-55
2022/11/11 01:59:12;;;;;;;11.02;6.03;;;;;;;11.06;100.00;102747.19;6096078;23;20173;-56
2022/11/11 02:01:59;;;;;;;13.00;6.45;;;;;;;11.02;100.00;102745.94;6096525;23;20460;-55
2022/11/11 02:07:51;;;;;;;12.27;7.25;;;;;;;11.05;100.00;102733.75;6096792;23;20126;-57
2022/11/11 02:10:39;;;;;;;10.32;5.80;;;;;;;11.14;100.00;102726.13;6095673;23;20026;-55
2022/11/11 02:16:30;;;;;;;10.77;5.63;;;;;;;11.05;100.00;102729.13;6096632;23;20018;-55
2022/11/11 02:19:19;;;;;;;11.20;5.72;;;;;;;11.04;100.00;102722.00;6096404;23;20019;-55
2022/11/11 02:22:10;;;;;;;12.27;5.85;;;;;;;11.01;100.00;102727.88;6096593;23;20023;-55
2022/11/11 02:24:58;;;;;;;13.05;7.35;;;;;;;10.98;100.00;102728.34;6095138;23;20022;-56
2022/11/11 02:27:48;;;;;;;11.02;6.22;;;;;;;10.95;100.00;102731.53;6095875;23;20034;-54
2022/11/11 02:30:35;;;;;;;10.32;5.93;;;;;;;10.96;100.00;102741.38;6096809;23;20192;-55
2022/11/11 02:33:21;;;;;;;11.95;7.15;;;;;;;10.95;100.00;102739.72;6095947;23;20018;-56
2022/11/11 02:36:13;;;;;;;13.45;6.28;;;;;;;10.99;100.00;102740.94;6096438;23;20046;-53
2022/11/11 02:39:00;;;;;;;12.40;6.47;;;;;;;10.96;100.00;102741.38;6097005;23;20097;-53
2022/11/11 02:41:58;;;;;;;11.10;7.00;;;;;;;10.95;100.00;102736.16;6095984;23;20102;-50
2022/11/11 02:44:44;;;;;;;12.50;6.55;;;;;;;10.96;100.00;102737.81;6097523;23;20029;-54
2022/11/11 02:47:31;;;;;;;9.10;5.68;;;;;;;10.93;100.00;102741.00;6096780;23;20022;-56
2022/11/11 02:50:17;;;;;;;11.07;5.65;;;;;;;11.00;100.00;102726.22;6097282;23;20018;-53
2022/11/11 02:53:03;;;;;;;;;;;;;;;11.05;100.00;102720.09;6097571;23;20027;-50
2022/11/11 02:55:49;;;;;;;10.13;6.07;;;;;;;10.97;100.00;102725.84;6097049;23;19949;-55
2022/11/11 02:58:35;;;;;;;;;;;;;;;11.00;100.00;102728.13;6097498;23;20331;-55
2022/11/11 03:01:22;;;;;;;10.07;5.80;;;;;;;10.98;100.00;102728.34;6096542;23;20243;-56
2022/11/11 03:04:08;;;;;;;12.57;6.72;;;;;;;10.96;100.00;102729.63;6094785;23;20022;-55
2022/11/11 03:06:54;;;;;;;12.00;6.03;;;;;;;10.95;100.00;102727.97;6096478;23;20447;-57
2022/11/11 03:09:41;;;;;;;14.38;6.28;;;;;;;10.96;100.00;102733.19;6097165;23;20058;-55
2022/11/11 03:12:27;;;;;;;11.27;6.45;;;;;;;10.95;100.00;102734.25;6097059;23;20455;-53
2022/11/11 03:15:13;;;;;;;12.00;6.25;;;;;;;10.95;100.00;102734.25;6096940;23;20018;-56
2022/11/11 03:18:00;;;;;;;10.68;6.93;;;;;;;10.91;100.00;102730.28;6097354;23;20097;-54
2022/11/11 03:21:05;;;;;;;11.43;7.00;;;;;;;10.85;100.00;102739.38;6096954;23;20034;-51
2022/11/11 03:24:11;;;;;;;10.32;6.07;;;;;;;10.88;100.00;102739.75;6096937;23;20131;-57
2022/11/11 03:26:57;;;;;;;11.25;6.45;;;;;;;10.87;100.00;102734.53;6096040;23;20023;-54
2022/11/11 03:29:43;;;;;;;11.20;5.88;;;;;;;10.94;100.00;102732.56;6097428;23;20101;-56
2022/11/11 03:32:29;;;;;;;11.65;5.70;;;;;;;10.94;100.00;102731.75;6096480;23;20317;-53
2022/11/11 03:35:15;;;;;;;11.93;6.70;;;;;;;10.89;100.00;102729.69;6096439;23;20436;-55
2022/11/11 03:41:06;;;;;;;11.27;5.55;;;;;;;10.85;100.00;102723.03;6096148;23;20022;-53
2022/11/11 03:43:52;;;;;;;;;;;;;;;10.85;100.00;102729.31;6097509;23;20019;-55
2022/11/11 03:46:38;;;;;;;8.57;4.95;;;;;;;10.85;100.00;102729.31;6096005;23;19917;-57
2022/11/11 03:49:24;;;;;;;9.82;5.35;;;;;;;10.85;100.00;102729.31;6096715;23;20073;-56
2022/11/11 03:52:10;;;;;;;10.35;5.80;;;;;;;10.84;100.00;102726.78;6096714;23;20029;-55
2022/11/11 03:54:56;;;;;;;;;;;;;;;10.86;100.00;102730.97;6096743;23;20026;-56
2022/11/11 03:57:45;;;;;;;10.70;5.45;;;;;;;10.82;100.00;102737.94;6096832;23;19917;-53
2022/11/11 04:00:31;;;;;;;11.38;5.32;;;;;;;10.82;100.00;102742.53;6095648;23;20439;-55
2022/11/11 04:16:07;;;;;;;12.45;6.38;;;;;;;10.76;100.00;102748.91;6096041;23;20030;-56
2022/11/11 04:21:58;;;;;;;11.38;5.35;;;;;;;10.78;100.00;102754.97;6096491;23;20022;-53
2022/11/11 04:29:27;;;;;;;11.35;5.70;;;;;;;10.72;100.00;102753.94;6096317;23;20018;-52
2022/11/11 04:30:55;;;;;;;10.25;5.72;;;;;;;10.76;100.00;102763.34;6095445;23;20339;-54
2022/11/11 04:33:41;;;;;;;13.20;7.30;;;;;;;10.70;100.00;102757.94;6096022;23;20347;-52
2022/11/11 04:36:27;;;;;;;13.20;7.28;;;;;;;10.62;100.00;102757.16;6096299;23;20022;-53
2022/11/11 04:42:17;;;;;;;10.82;6.55;;;;;;;10.60;100.00;102747.53;6096758;23;20397;-52
2022/11/11 04:48:12;;;;;;;10.43;5.75;;;;;;;10.62;100.00;102748.97;6097058;23;20025;-54
2022/11/11 04:50:58;;;;;;;10.48;5.68;;;;;;;10.63;100.00;102749.81;6096757;23;20352;-54
2022/11/11 04:53:44;;;;;;;11.82;6.05;;;;;;;10.63;100.00;102742.50;6098209;23;20094;-53
2022/11/11 04:56:49;;;;;;;12.90;6.13;;;;;;;10.63;100.00;102742.50;6097548;23;20019;-60
2022/11/11 04:59:35;;;;;;;12.60;6.10;;;;;;;10.64;100.00;102746.88;6098042;23;20022;-53
2022/11/11 05:05:27;;;;;;;11.88;6.18;;;;;;;10.62;100.00;102746.25;6103497;23;20023;-55
2022/11/11 05:11:19;;;;;;;9.57;5.17;;;;;;;10.64;100.00;102752.31;6103603;23;20546;-54
2022/11/11 05:25:24;;;;;;;9.18;4.97;;;;;;;10.87;100.00;102745.44;6098155;23;20045;-50
2022/11/11 05:26:30;;;;;;;11.40;5.35;;;;;;;10.90;100.00;102739.56;6100250;23;20018;-50
2022/11/11 05:29:17;;;;;;;5.93;3.53;;;;;;;10.96;100.00;102749.56;6100490;23;20066;-52
2022/11/11 05:32:04;;;;;;;11.85;6.60;;;;;;;10.88;100.00;102739.75;6102843;23;20018;-54
2022/11/11 05:34:50;;;;;;;9.05;5.63;;;;;;;10.77;100.00;102747.81;6100086;23;20023;-53
2022/11/11 05:37:36;;;;;;;9.60;5.35;;;;;;;10.77;100.00;102747.81;6097931;23;20049;-53
2022/11/11 05:40:22;;;;;;;;;;;;;;;11.11;100.00;102745.66;6097045;23;20101;-55
2022/11/11 05:43:08;;;;;;;;;;;;;;;11.08;100.00;102753.22;6098217;23;19929;-53
2022/11/11 05:45:54;;;;;;;5.07;2.58;;;;;;;11.15;100.00;102752.34;6097420;23;20330;-56
2022/11/11 05:49:14;;;;;;;10.48;6.47;;;;;;;10.94;100.00;102759.84;6097804;23;20380;-57
2022/11/11 05:51:47;;;;;;;8.20;5.60;;;;;;;10.66;100.00;102752.94;6097618;23;20018;-55
2022/11/11 05:54:33;;;;;;;9.45;5.93;;;;;;;10.60;100.00;102763.88;6097337;23;20089;-57
2022/11/11 05:57:19;;;;;;;;;;;;;;;10.59;100.00;102765.78;6095699;23;20018;-56
2022/11/11 06:00:06;;;;;;;7.50;3.83;;;;;;;10.64;100.00;102755.06;6098100;23;19940;-57
2022/11/11 06:02:51;;;;;;;9.60;5.65;;;;;;;10.65;100.00;102759.47;6097651;23;20018;-57
2022/11/11 06:05:37;;;;;;;;;;;;;;;10.84;100.00;102757.63;6096933;23;20018;-51
2022/11/11 06:08:24;;;;;;;9.15;5.07;;;;;;;10.85;100.00;102763.94;6097201;23;19917;-54
2022/11/11 06:11:10;;;;;;;11.48;5.57;;;;;;;10.68;100.00;102773.69;6097632;23;20324;-57
2022/11/11 06:13:56;;;;;;;;;;;;;;;10.63;100.00;102779.78;6097609;23;20097;-52
2022/11/11 06:16:42;;;;;;;8.95;5.47;;;;;;;10.66;100.00;102779.38;6096135;23;19957;-52
2022/11/11 06:19:28;;;;;;;;;;;;;;;10.83;100.00;102774.22;6096368;23;20050;-56
2022/11/11 06:22:54;;;;;;;12.05;6.28;;;;;;;10.70;100.00;102774.31;6096813;23;19918;-57
2022/11/11 06:28:24;;;;;;;9.23;5.17;;;;;;;10.85;100.00;102772.13;6090881;23;20511;-57
2022/11/11 06:31:13;;;;;;;10.07;5.20;;;;;;;10.83;100.00;102772.31;6093714;23;20247;-55
2022/11/11 06:33:59;;;;;;;9.30;4.20;;;;;;;10.80;100.00;102774.63;6093565;23;20050;-55
2022/11/11 06:36:45;;;;;;;8.50;4.70;;;;;;;10.64;100.00;102787.75;6093616;23;20025;-57
2022/11/11 06:39:31;;;;;;;;;;;;;;;10.90;100.00;102790.53;6093884;23;20041;-54
2022/11/11 06:42:18;;;;;;;10.93;6.45;;;;;;;10.73;100.00;102812.06;6093412;23;19925;-56
2022/11/11 06:45:04;;;;;;;8.80;5.72;;;;;;;10.63;100.00;102807.06;6093255;23;20104;-57
2022/11/11 06:47:50;;;;;;;9.98;6.05;;;;;;;10.53;100.00;102801.25;6091329;23;20077;-59
2022/11/11 06:50:36;;;;;;;;;;;;;;;10.76;100.00;102801.53;6092482;23;20511;-56
2022/11/11 06:53:22;;;;;;;10.73;5.60;;;;;;;10.60;100.00;102811.06;6092599;23;19921;-57
2022/11/11 06:56:11;;;;;;;11.43;6.43;;;;;;;10.55;100.00;102802.72;6093107;23;20022;-55
2022/11/11 06:58:57;;;;;;;14.93;8.93;;;;;;;10.39;100.00;102803.22;6091501;23;20447;-55
2022/11/11 07:01:43;;;;;;;15.02;6.72;;;;;;;10.35;100.00;102802.00;6091189;23;20101;-55
2022/11/11 07:04:29;;;;;;;13.57;7.95;;;;;;;10.32;100.00;102800.56;6092907;23;20022;-52
2022/11/11 07:07:16;;;;;;;8.43;5.07;;;;;;;10.52;100.00;102794.97;6093321;23;20028;-54
2022/11/11 07:10:06;;;;;;;12.43;5.85;;;;;;;10.42;100.00;102800.06;6092712;23;20022;-55
2022/11/11 07:12:52;;;;;;;11.82;7.60;;;;;;;10.43;100.00;102804.47;6092293;23;20603;-56
2022/11/11 07:15:40;;;;;;;10.38;7.32;;;;;;;10.37;100.00;102813.53;6092391;23;20058;-56
2022/11/11 07:18:26;;;;;;;14.57;8.38;;;;;;;10.36;100.00;102809.09;6093282;23;20050;-54
2022/11/11 07:21:13;;;;;;;10.70;7.18;;;;;;;10.24;100.00;102819.81;6092632;23;20095;-56
2022/11/11 07:23:59;;;;;;;;;;;;;;;10.32;100.00;102816.03;6093406;23;20030;-53
2022/11/11 07:26:45;;;;;;;11.25;6.82;;;;;;;10.26;100.00;102823.16;6092430;23;19921;-54
2022/11/11 07:29:31;;;;;;;15.30;7.03;;;;;;;10.26;100.00;102827.78;6092668;23;20606;-52
2022/11/11 07:32:18;;;;;;;14.32;8.90;;;;;;;10.31;100.00;102837.00;6092625;23;20458;-56
2022/11/11 07:35:04;;;;;;;10.32;6.63;;;;;;;10.29;100.00;102849.19;6092597;23;20026;-51
2022/11/11 07:37:50;;;;;;;11.52;7.00;;;;;;;10.22;100.00;102838.25;6092722;23;20019;-55
2022/11/11 07:40:37;;;;;;;14.00;8.05;;;;;;;10.16;100.00;102845.44;6093124;23;20768;-55
2022/11/11 07:43:24;;;;;;;12.80;7.28;;;;;;;10.19;100.00;102844.16;6093820;23;20478;-56
2022/11/11 07:46:10;;;;;;;12.00;8.55;;;;;;;10.21;100.00;102855.69;6096241;23;20022;-56
2022/11/11 07:48:56;;;;;;;13.77;6.75;;;;;;;10.22;100.00;102852.75;6096927;23;20018;-56
2022/11/11 07:51:42;;;;;;;12.90;7.88;;;;;;;10.27;100.00;102854.81;6096799;23;20023;-58
2022/11/11 07:54:28;;;;;;;12.95;7.28;;;;;;;10.23;100.00;102859.84;6096592;23;20522;-56
2022/11/11 07:57:14;;;;;;;18.10;8.18;;;;;;;10.18;100.00;102865.13;6096614;23;20339;-58
2022/11/11 08:00:00;;;;;;;13.68;5.95;;;;;;;10.31;100.00;102869.69;6097148;23;20018;-56
2022/11/11 08:02:48;;;;;;;13.23;8.68;;;;;;;10.26;100.00;102877.66;6095731;23;20022;-52
2022/11/11 08:05:33;;;;;;;13.80;7.75;;;;;;;10.26;100.00;102883.09;6093894;23;20090;-55
2022/11/11 08:08:23;;;;;;;14.48;8.05;;;;;;;10.14;100.00;102879.38;6096049;23;20023;-51
2022/11/11 08:11:11;;;;;;;14.63;8.50;;;;;;;10.17;100.00;102885.25;6096127;23;20021;-58
2022/11/11 08:13:57;;;;;;;11.70;7.38;;;;;;;10.13;100.00;102888.63;6096622;23;20329;-57
2022/11/11 08:16:43;;;;;;;10.77;6.32;;;;;;;10.14;100.00;102890.28;6095808;23;20021;-56
2022/11/11 08:19:29;;;;;;;;;;;;;;;10.30;100.00;102894.47;6096224;23;20471;-55
2022/11/11 08:22:15;;;;;;;14.73;7.07;;;;;;;10.28;100.00;102896.53;6098782;23;19992;-57
2022/11/11 08:25:01;;;;;;;;;;;;;;;10.20;100.00;102894.88;6098620;23;20023;-55
2022/11/11 08:28:00;;;;;;;15.70;10.10;;;;;;;10.01;100.00;102889.25;6097067;23;19936;-55
2022/11/11 08:30:47;;;;;;;;;;;;;;;9.96;100.00;102904.59;6097538;23;20018;-54
2022/11/11 08:33:34;;;;;;;13.15;8.48;;;;;;;9.90;100.00;102905.41;6098059;23;20227;-50
2022/11/11 08:36:22;;;;;;;13.52;8.60;;;;;;;9.88;100.00;102915.69;6096687;23;20022;-50
2022/11/11 08:39:08;;;;;;;19.33;8.13;;;;;;;9.89;100.00;102914.66;6096583;23;20022;-51
2022/11/11 08:41:54;;;;;;;16.48;8.00;;;;;;;9.93;100.00;102911.28;6098531;23;20024;-53
2022/11/11 08:44:40;;;;;;;;;;;;;;;10.23;100.00;102922.53;6098712;23;20022;-51
2022/11/11 08:47:27;;;;;;;18.95;10.15;;;;;;;10.28;100.00;102923.78;6097401;23;20335;-52
2022/11/11 08:50:12;;;;;;;15.27;6.97;;;;;;;10.33;100.00;102933.00;6098485;23;20026;-54
2022/11/11 08:52:58;;;;;;;16.27;7.07;;;;;;;10.32;100.00;102922.31;6098445;23;20022;-54
2022/11/11 08:55:44;;;;;;;13.85;6.18;;;;;;;10.34;100.00;102920.19;6098470;23;20447;-52
2022/11/11 08:58:31;;;;;;;14.75;6.68;;;;;;;10.42;100.00;102914.53;6098160;23;20022;-51
2022/11/11 09:01:17;;;;;;;15.10;6.90;;;;;;;10.44;100.00;102924.16;6098245;23;20106;-52
2022/11/11 09:04:04;;;;;;;11.40;6.13;;;;;;;10.42;100.00;102923.53;6097404;23;20023;-51
2022/11/11 09:07:11;;;;;;;12.05;6.28;;;;;;;10.37;100.00;102919.78;6097142;23;20025;-52
2022/11/11 09:09:57;;;;;;;11.45;5.43;;;;;;;10.42;100.00;102919.97;6097626;23;20418;-51
2022/11/11 09:12:43;;;;;;;10.70;5.50;;;;;;;10.43;100.00;102921.66;6098194;23;20022;-54
2022/11/11 09:15:29;;;;;;;;;;;;;;;10.46;100.00;102918.47;6097705;23;20046;-51
2022/11/11 09:18:15;;;;;;;11.82;6.43;;;;;;;10.60;100.00;102917.38;6096355;23;19952;-50
2022/11/11 09:21:02;;;;;;;;;;;;;;;10.64;100.00;102924.06;6097896;23;20444;-51
2022/11/11 09:23:48;;;;;;;11.68;6.00;;;;;;;10.82;100.00;102933.41;6098041;23;19924;-52
2022/11/11 09:26:34;;;;;;;11.85;6.03;;;;;;;10.57;100.00;102928.72;6096082;23;20018;-53
2022/11/11 09:29:20;;;;;;;;;;;;;;;10.65;100.00;102920.31;6096244;23;20432;-49
2022/11/11 09:32:06;;;;;;;17.92;5.03;;;;;;;10.66;100.00;102921.16;6096690;23;19968;-51
2022/11/11 09:34:54;;;;;;;;;;;;;;;10.82;100.00;102914.34;6098036;23;20019;-52
2022/11/11 09:37:40;;;;;;;11.40;4.20;;;;;;;10.83;100.00;102911.41;6097699;23;19943;-55
2022/11/11 09:40:47;;;;;;;10.65;5.47;;;;;;;10.89;100.00;102917.84;6095955;23;20022;-52
2022/11/11 09:44:00;;;;;;;14.20;6.22;;;;;;;10.88;100.00;102925.22;6094043;23;20022;-56
2022/11/11 09:47:24;;;;;;;14.85;5.68;;;;;;;10.81;100.00;102935.31;6096341;23;20459;-55
2022/11/11 09:50:16;;;;;;;11.20;5.40;;;;;;;10.64;100.00;102934.97;6059794;23;20030;-55
2022/11/11 09:53:16;;;;;;;10.63;5.28;;;;;;;10.71;100.00;102928.69;6095208;23;20101;-55
2022/11/11 09:56:19;;;;;;;11.68;4.53;;;;;;;10.80;100.00;102935.53;6097755;23;20038;-55
2022/11/11 09:59:33;;;;;;;10.90;4.85;;;;;;;10.92;100.00;102936.53;6096691;23;20014;-54
2022/11/11 10:02:33;;;;;;;9.73;5.40;;;;;;;10.87;100.00;102933.59;6075836;23;20028;-55
2022/11/11 10:05:37;;;;;;;9.52;5.72;;;;;;;10.78;100.00;102943.94;6095709;23;20030;-55
2022/11/11 10:08:33;;;;;;;10.65;5.32;;;;;;;10.87;100.00;102945.38;6097184;23;20050;-53
2022/11/11 10:11:26;;;;;;;10.65;5.45;;;;;;;10.84;100.00;102944.94;6095629;23;20451;-56
2022/11/11 10:14:12;;;;;;;8.50;4.32;;;;;;;10.80;100.00;102943.69;6096450;23;20023;-57
2022/11/11 10:17:05;;;;;;;8.45;4.70;;;;;;;10.85;100.00;102943.91;6097410;23;20019;-54
2022/11/11 10:20:13;;;;;;;11.80;5.90;;;;;;;10.87;100.00;102942.66;6096247;23;20018;-52
2022/11/11 10:23:11;;;;;;;9.68;4.72;;;;;;;10.96;100.00;102939.66;6098277;23;20049;-58
2022/11/11 10:26:01;;;;;;;12.02;5.47;;;;;;;11.08;100.00;102943.34;6097744;23;20018;-56
2022/11/11 10:28:49;;;;;;;9.38;4.82;;;;;;;11.02;100.00;102941.50;6095839;23;20093;-57
2022/11/11 10:31:35;;;;;;;8.90;5.40;;;;;;;10.83;100.00;102937.84;6096566;23;20019;-56
2022/11/11 10:34:22;;;;;;;9.30;5.78;;;;;;;10.68;100.00;102937.25;6097165;23;20503;-54
2022/11/11 10:37:21;;;;;;;9.25;5.82;;;;;;;10.60;100.00;102941.91;6095750;23;20086;-55
2022/11/11 10:40:22;;;;;;;14.32;6.18;;;;;;;10.55;100.00;102940.88;6095719;23;20025;-55
2022/11/11 10:43:20;;;;;;;10.57;5.90;;;;;;;10.63;100.00;102943.38;6095149;23;20030;-56
2022/11/11 10:46:23;;;;;;;11.07;5.00;;;;;;;10.84;100.00;102942.22;6096893;23;20436;-53
2022/11/11 10:49:16;;;;;;;9.65;5.22;;;;;;;11.00;100.00;102938.16;6095680;23;20019;-54
2022/11/11 10:52:19;;;;;;;10.02;5.03;;;;;;;10.97;100.00;102944.91;6096904;23;20091;-56
2022/11/11 10:55:06;;;;;;;11.57;5.90;;;;;;;11.00;100.00;102938.16;6095990;23;20029;-57
2022/11/11 10:58:07;;;;;;;9.00;4.03;;;;;;;11.12;100.00;102939.13;6097328;23;20070;-53
2022/11/11 11:00:54;;;;;;;10.13;4.78;;;;;;;11.28;100.00;102932.28;6095595;23;20019;-57
2022/11/11 11:03:44;;;;;;;8.65;3.55;;;;;;;11.20;100.00;102932.56;6096754;23;20089;-53
2022/11/11 11:06:33;;;;;;;9.07;4.60;;;;;;;11.14;100.00;102934.31;6095755;23;20026;-53
2022/11/11 11:09:29;;;;;;;7.60;3.05;;;;;;;11.25;100.00;102930.03;6095719;23;20022;-52
2022/11/11 11:12:23;;;;;;;10.82;5.10;;;;;;;11.25;100.00;102933.56;6099216;23;20452;-58
2022/11/11 11:15:19;;;;;;;6.95;3.33;;;;;;;11.26;100.00;102935.25;6101264;23;20443;-55
2022/11/11 11:18:14;;;;;;;7.65;3.55;;;;;;;11.44;100.00;102939.13;6100966;23;20026;-56
2022/11/11 11:21:02;;;;;;;7.40;3.75;;;;;;;11.49;100.00;102934.66;6100575;23;20018;-56
2022/11/11 11:23:48;;;;;;;5.63;3.00;;;;;;;11.49;100.00;102926.47;6097796;23;20022;-61
2022/11/11 11:26:45;;;;;;;;;;;;;;;11.59;100.00;102923.22;6098805;23;20022;-56
2022/11/11 11:29:32;;;;;;;9.05;3.80;;;;;;;11.70;100.00;102921.69;6096450;23;20365;-52
2022/11/11 11:32:28;;;;;;;10.05;4.22;;;;;;;11.74;100.00;102917.47;6095394;23;20351;-57
2022/11/11 11:35:39;;;;;;;5.38;3.00;;;;;;;11.67;100.00;102914.78;6098438;23;20030;-63
2022/11/11 11:38:52;;;;;;;7.35;3.42;;;;;;;11.67;100.00;102913.94;6099787;23;20018;-55
2022/11/11 11:41:49;;;;;;;6.57;2.97;;;;;;;11.72;100.00;102914.94;6098336;23;20511;-52
2022/11/11 11:44:37;;;;;;;10.05;3.65;;;;;;;11.74;100.00;102917.47;6097195;23;20472;-55
2022/11/11 11:47:35;;;;;;;8.32;3.28;;;;;;;11.72;100.00;102920.41;6095235;23;20027;-53
2022/11/11 11:50:30;;;;;;;6.70;3.15;;;;;;;11.65;100.00;102924.25;6095635;23;20015;-55
2022/11/11 11:53:38;;;;;;;6.57;3.63;;;;;;;11.67;100.00;102905.75;6096063;23;20019;-59
2022/11/11 11:56:36;;;;;;;5.88;2.72;;;;;;;11.69;100.00;102914.56;6097076;23;20023;-54
2022/11/11 11:59:26;;;;;;;7.00;3.20;;;;;;;11.56;100.00;102910.03;6097436;23;20022;-59
2022/11/11 12:02:47;;;;;;;5.95;2.75;;;;;;;11.55;100.00;102915.75;6097597;23;20383;-58
2022/11/11 12:05:54;;;;;;;5.57;2.88;;;;;;;11.90;100.00;102905.13;6099679;23;20344;-57
2022/11/11 12:09:04;;;;;;;4.55;2.53;;;;;;;11.99;100.00;102908.41;6097338;23;20030;-55
2022/11/11 12:12:11;;;;;;;7.00;2.97;;;;;;;11.96;100.00;102911.59;6100425;23;20267;-56
2022/11/11 12:15:10;;;;;;;6.20;2.33;;;;;;;11.96;100.00;102906.97;6099410;23;20100;-58
2022/11/11 12:18:00;;;;;;;7.95;3.00;;;;;;;11.88;100.00;102902.66;6098281;23;20388;-56
2022/11/11 12:20:48;;;;;;;7.13;3.15;;;;;;;11.91;100.00;102893.16;6097107;23;20015;-57
2022/11/11 12:23:57;;;;;;;6.70;3.45;;;;;;;11.86;100.00;102898.44;6097238;23;20026;-56
2022/11/11 12:26:54;;;;;;;8.10;3.40;;;;;;;11.80;100.00;102889.22;6097734;23;20099;-57
2022/11/11 12:29:47;;;;;;;6.28;2.80;;;;;;;11.87;100.00;102879.09;6100065;23;20030;-55
2022/11/11 12:33:11;;;;;;;5.38;2.40;;;;;;;11.89;100.00;102876.16;6097636;23;20102;-56
2022/11/11 12:36:28;;;;;;;7.15;3.20;;;;;;;11.98;100.00;102879.41;6099066;23;20037;-58
2022/11/11 12:39:13;;;;;;;4.80;2.72;;;;;;;11.97;100.00;102869.56;6098769;23;20336;-58
2022/11/11 12:42:10;;;;;;;5.05;2.67;;;;;;;12.12;100.00;102867.28;6098924;23;20018;-55
2022/11/11 12:45:14;;;;;;;4.28;2.53;;;;;;;12.06;100.00;102869.03;6097069;23;20015;-57
2022/11/11 12:48:21;;;;;;;5.00;2.63;;;;;;;11.99;100.00;102870.16;6098079;23;20045;-54
2022/11/11 12:51:31;;;;;;;5.40;2.63;;;;;;;12.07;100.00;102873.41;6098065;23;20023;-56
2022/11/11 12:54:34;;;;;;;4.75;2.50;;;;;;;12.12;100.00;102872.72;6098072;23;20018;-56
2022/11/11 12:57:48;;;;;;;5.85;2.65;;;;;;;12.08;100.00;102871.53;6097851;23;20022;-51
2022/11/11 13:00:39;;;;;;;3.88;2.53;;;;;;;12.11;100.00;102873.81;6098083;23;20022;-53
2022/11/11 13:03:46;;;;;;;3.53;2.28;;;;;;;12.06;100.00;102876.38;6097869;23;20026;-56
2022/11/11 13:06:50;;;;;;;4.50;2.20;;;;;;;12.09;100.00;102868.56;6097555;23;20108;-55
2022/11/11 13:10:04;;;;;;;5.60;2.50;;;;;;;12.26;100.00;102870.69;6096639;23;20030;-58
2022/11/11 13:12:57;;;;;;;5.65;2.65;;;;;;;12.26;100.00;102866.03;6076758;23;20023;-57
2022/11/11 13:15:43;;;;;;;5.93;2.95;;;;;;;12.20;100.00;102866.97;6098091;23;20033;-57
2022/11/11 13:18:58;;;;;;;5.90;2.60;;;;;;;12.27;100.00;102867.72;6097502;23;20019;-53
2022/11/11 13:21:52;;;;;;;3.90;2.58;;;;;;;12.39;100.00;102864.22;6097780;23;20022;-56
2022/11/11 13:24:38;;;;;;;5.80;2.45;;;;;;;12.31;100.00;102860.75;6097933;23;20029;-55
2022/11/11 13:27:43;;;;;;;3.95;2.47;;;;;;;12.27;100.00;102862.28;6097920;23;20042;-58
2022/11/11 13:30:32;;;;;;;;;;;;;;;12.31;100.00;102859.91;6098857;23;20045;-55
2022/11/11 13:33:24;;;;;;;4.85;2.28;;;;;;;12.30;100.00;102852.78;6097914;23;19931;-57
2022/11/11 13:36:15;;;;;;;5.18;2.78;;;;;;;12.34;100.00;102862.19;6097737;23;20341;-58
2022/11/11 13:39:02;;;;;;;4.18;2.42;;;;;;;12.32;100.00;102864.31;6096713;23;20024;-58
2022/11/11 13:41:52;;;;;;;3.05;2.25;;;;;;;12.26;100.00;102871.50;6097771;23;20419;-58
2022/11/11 13:44:53;;;;;;;5.60;2.58;;;;;;;12.19;100.00;102870.75;6096550;23;20097;-60
2022/11/11 13:47:43;;;;;;;2.65;2.08;;;;;;;12.26;100.00;102871.50;6096131;23;20018;-56
2022/11/11 13:50:35;;;;;;;3.67;2.13;;;;;;;12.27;100.00;102870.47;6096422;23;20018;-56
2022/11/11 13:53:33;;;;;;;6.95;2.97;;;;;;;12.18;100.00;102869.09;6097466;23;20344;-56
2022/11/11 13:56:38;;;;;;;5.35;2.72;;;;;;;12.26;100.00;102866.03;6096335;23;20033;-56
2022/11/11 13:59:27;;;;;;;4.18;2.53;;;;;;;12.21;100.00;102868.63;6071453;23;20018;-56
2022/11/11 14:02:19;;;;;;;6.07;2.70;;;;;;;12.14;100.00;102870.59;6096463;23;20101;-56
2022/11/11 14:05:07;;;;;;;4.38;2.40;;;;;;;12.11;100.00;102871.91;6097527;23;20033;-56
2022/11/11 14:07:56;;;;;;;4.97;2.45;;;;;;;12.12;100.00;102864.53;6097517;23;20388;-57
2022/11/11 14:10:51;;;;;;;9.93;3.47;;;;;;;12.15;100.00;102873.13;6095794;23;20026;-54
2022/11/11 14:13:38;;;;;;;7.68;3.22;;;;;;;12.17;100.00;102867.44;6096071;23;20018;-55